Los Angeles, CA (90065)

7:03 PM PDT on May 26, 2015 (GMT -0700)
Glassell Park | | Change Station
CLOSE
Current Station
Personal Weather Station
Location: Los Angeles, CA
Elevation: 568 ft
Nearby Weather Stations

Elev 568 ft 34.11 °N, 118.23 °W | Updated 1 minute ago

Partly Cloudy
Partly Cloudy
61.7 °F
Feels Like 61.7 °F
N
13.0
Wind Variable Wind from SW
Gusts 13.0 mph

Today
High -- | Low -- °F
--% Chance of Precip.
Yesterday
High -- | Low -- °F
Precip. -- in
5:44 AM 7:55 PM
Waxing Gibbous, 63% visible
Pressure 29.96 in
Visibility 10.0 miles
Clouds Mostly Cloudy 1500 ft
Dew Point 55 °F
Humidity 80%
Rainfall 0.24 in
Snow Depth Not available.
UV 1.0 out of 12
Pollen 4.70 out of 12
Air Quality Not available.
Flu Activity Sporadic
METAR KCQT 270147Z AUTO 28007KT 10SM BKN015 17/12 A2996 RMK AO2 SLP145 T01720122

More Conditions Fewer Conditions

Pressure 29.96 in
Visibility 10.0 miles
Clouds Mostly Cloudy 1500 ft
Dew Point 55 °F
Humidity 80%
Rainfall 0.24 in
Snow Depth Not available.
UV 1.0 out of 12
Pollen 4.70 out of 12
Air Quality Not available.
Flu Activity Sporadic
METAR KCQT 270147Z AUTO 28007KT 10SM BKN015 17/12 A2996 RMK AO2 SLP145 T01720122

More Conditions Fewer Conditions

10-Day Weather Forecast

Almanac

Astronomy

May. 26, 2015 Rise Set
Actual Time
Civil Twilight
Nautical Twilight
Astronomical Twilight
Moon
Length of Visible Light
Length of Day
Tomorrow will be .
, % of the Moon is Illuminated

Today's Extremes

State Highs State Lows

Community

WunderPhotos

Upload Photos

1,824,558 photos uploaded!

WunderBlogs® & News

Nearby

Air Quality

  Air Quality AQ Index Pollutant
Not available.

Snow Depth

Station Depth Elevation

Earthquake Activity

City Distance Mag. Time & Date
Minimum magnitude displayed is 2.5.

Coastal Water Temperatures

Place Temperature

Stations

Nearby Weather Stations

Station Location Temp. Windchill Dew Point Humidity Wind Precip. Elev Updated Type